National Weather Service United States Department of Commerce
Click Here for Latest Airport Weather Warnings
 
Latest Huntsville TAF


342
FTUS44 KHUN 200306 AAJ
TAFHSV
TAF AMD
KHSV 200306Z 2003/2024 36010KT P6SM SKC
FM200700 36007KT P6SM OVC021
FM201500 36008G14KT P6SM SKC
FM202300 36006KT P6SM SKC=

Latest Muscle Shoals TAF


000
FTUS44 KHUN 200307 AAK
TAFMSL
TAF AMD
KMSL 200307Z 2003/2024 34011G18KT P6SM SKC
FM200700 35009KT P6SM OVC019
FM201500 36008G14KT P6SM SKC
FM202300 VRB04KT P6SM FEW200=


Back to Main Huntsville Weather Forecast Office Page